sensor_id;sensor_type;location;lat;lon;timestamp;P1;durP1;ratioP1;P2;durP2;ratioP2
72464;SDS011;60471;52.150;4.508;2023-12-14T00:00:47;16.27;;;10.10;;
72464;SDS011;60471;52.150;4.508;2023-12-14T00:03:14;16.40;;;9.98;;
72464;SDS011;60471;52.150;4.508;2023-12-14T00:05:40;15.73;;;9.65;;
72464;SDS011;60471;52.150;4.508;2023-12-14T00:08:06;17.05;;;9.73;;
72464;SDS011;60471;52.150;4.508;2023-12-14T00:10:32;17.20;;;9.65;;
72464;SDS011;60471;52.150;4.508;2023-12-14T00:12:58;17.60;;;9.80;;
72464;SDS011;60471;52.150;4.508;2023-12-14T00:15:25;15.88;;;10.38;;
72464;SDS011;60471;52.150;4.508;2023-12-14T00:17:51;14.75;;;9.68;;
72464;SDS011;60471;52.150;4.508;2023-12-14T00:20:17;19.23;;;9.77;;
72464;SDS011;60471;52.150;4.508;2023-12-14T00:22:43;14.88;;;9.85;;
72464;SDS011;60471;52.150;4.508;2023-12-14T00:25:09;14.18;;;8.82;;
72464;SDS011;60471;52.150;4.508;2023-12-14T00:27:36;22.40;;;9.80;;
72464;SDS011;60471;52.150;4.508;2023-12-14T00:30:02;18.85;;;9.85;;
72464;SDS011;60471;52.150;4.508;2023-12-14T00:32:28;18.88;;;10.00;;
72464;SDS011;60471;52.150;4.508;2023-12-14T00:34:55;16.02;;;9.88;;
72464;SDS011;60471;52.150;4.508;2023-12-14T00:37:21;20.27;;;10.63;;
72464;SDS011;60471;52.150;4.508;2023-12-14T00:39:47;19.95;;;11.43;;
72464;SDS011;60471;52.150;4.508;2023-12-14T00:42:13;20.40;;;10.65;;
72464;SDS011;60471;52.150;4.508;2023-12-14T00:44:40;22.40;;;11.57;;
72464;SDS011;60471;52.150;4.508;2023-12-14T00:47:06;19.55;;;10.75;;
72464;SDS011;60471;52.150;4.508;2023-12-14T00:49:32;19.83;;;12.43;;
72464;SDS011;60471;52.150;4.508;2023-12-14T00:51:58;22.58;;;11.85;;
72464;SDS011;60471;52.150;4.508;2023-12-14T00:54:24;19.73;;;11.30;;
72464;SDS011;60471;52.150;4.508;2023-12-14T00:56:50;25.08;;;13.43;;
72464;SDS011;60471;52.150;4.508;2023-12-14T00:59:17;21.70;;;12.15;;
72464;SDS011;60471;52.150;4.508;2023-12-14T01:01:43;24.48;;;12.70;;
72464;SDS011;60471;52.150;4.508;2023-12-14T01:04:09;23.02;;;12.85;;
72464;SDS011;60471;52.150;4.508;2023-12-14T01:06:35;27.00;;;13.55;;
72464;SDS011;60471;52.150;4.508;2023-12-14T01:09:01;24.30;;;12.25;;
72464;SDS011;60471;52.150;4.508;2023-12-14T01:11:28;23.13;;;13.00;;
72464;SDS011;60471;52.150;4.508;2023-12-14T01:13:54;21.65;;;11.88;;
72464;SDS011;60471;52.150;4.508;2023-12-14T01:16:20;20.88;;;12.02;;
72464;SDS011;60471;52.150;4.508;2023-12-14T01:18:46;23.77;;;12.48;;
72464;SDS011;60471;52.150;4.508;2023-12-14T01:21:13;23.30;;;12.30;;
72464;SDS011;60471;52.150;4.508;2023-12-14T01:23:39;22.02;;;12.52;;
72464;SDS011;60471;52.150;4.508;2023-12-14T01:26:05;21.48;;;12.73;;
72464;SDS011;60471;52.150;4.508;2023-12-14T01:28:31;25.70;;;12.00;;
72464;SDS011;60471;52.150;4.508;2023-12-14T01:30:57;23.63;;;12.82;;
72464;SDS011;60471;52.150;4.508;2023-12-14T01:33:24;22.08;;;13.07;;
72464;SDS011;60471;52.150;4.508;2023-12-14T01:35:50;22.38;;;13.55;;
72464;SDS011;60471;52.150;4.508;2023-12-14T01:38:16;24.65;;;12.85;;
72464;SDS011;60471;52.150;4.508;2023-12-14T01:40:42;23.08;;;12.77;;
72464;SDS011;60471;52.150;4.508;2023-12-14T01:43:09;24.30;;;12.30;;
72464;SDS011;60471;52.150;4.508;2023-12-14T01:45:36;23.10;;;12.07;;
72464;SDS011;60471;52.150;4.508;2023-12-14T01:48:04;23.88;;;12.90;;
72464;SDS011;60471;52.150;4.508;2023-12-14T01:50:30;27.75;;;13.35;;
72464;SDS011;60471;52.150;4.508;2023-12-14T01:52:57;28.80;;;12.88;;
72464;SDS011;60471;52.150;4.508;2023-12-14T01:55:23;30.75;;;14.15;;
72464;SDS011;60471;52.150;4.508;2023-12-14T01:57:50;26.05;;;13.07;;
72464;SDS011;60471;52.150;4.508;2023-12-14T02:00:23;27.83;;;13.30;;
72464;SDS011;60471;52.150;4.508;2023-12-14T02:03:02;24.65;;;12.75;;
72464;SDS011;60471;52.150;4.508;2023-12-14T02:05:28;21.67;;;12.10;;
72464;SDS011;60471;52.150;4.508;2023-12-14T02:07:54;28.10;;;12.88;;
72464;SDS011;60471;52.150;4.508;2023-12-14T02:10:20;29.67;;;13.07;;
72464;SDS011;60471;52.150;4.508;2023-12-14T02:12:47;21.58;;;11.60;;
72464;SDS011;60471;52.150;4.508;2023-12-14T02:15:13;23.80;;;11.57;;
72464;SDS011;60471;52.150;4.508;2023-12-14T02:17:39;21.90;;;11.23;;
72464;SDS011;60471;52.150;4.508;2023-12-14T02:20:05;23.05;;;11.85;;
72464;SDS011;60471;52.150;4.508;2023-12-14T02:22:35;22.33;;;11.45;;
72464;SDS011;60471;52.150;4.508;2023-12-14T02:25:18;26.23;;;11.40;;
72464;SDS011;60471;52.150;4.508;2023-12-14T02:27:44;26.90;;;11.23;;
72464;SDS011;60471;52.150;4.508;2023-12-14T02:30:11;24.77;;;11.65;;
72464;SDS011;60471;52.150;4.508;2023-12-14T02:32:38;24.05;;;11.68;;
72464;SDS011;60471;52.150;4.508;2023-12-14T02:35:05;20.25;;;10.63;;
72464;SDS011;60471;52.150;4.508;2023-12-14T02:37:33;23.42;;;10.05;;
72464;SDS011;60471;52.150;4.508;2023-12-14T02:40:03;24.73;;;11.45;;
72464;SDS011;60471;52.150;4.508;2023-12-14T02:42:30;20.48;;;10.68;;
72464;SDS011;60471;52.150;4.508;2023-12-14T02:44:56;17.85;;;9.77;;
72464;SDS011;60471;52.150;4.508;2023-12-14T02:47:23;21.83;;;11.20;;
72464;SDS011;60471;52.150;4.508;2023-12-14T02:49:49;27.95;;;11.00;;
72464;SDS011;60471;52.150;4.508;2023-12-14T02:52:15;23.95;;;10.95;;
72464;SDS011;60471;52.150;4.508;2023-12-14T02:54:41;20.90;;;11.18;;
72464;SDS011;60471;52.150;4.508;2023-12-14T02:57:07;21.23;;;11.35;;
72464;SDS011;60471;52.150;4.508;2023-12-14T02:59:34;23.30;;;11.18;;
72464;SDS011;60471;52.150;4.508;2023-12-14T03:02:00;23.42;;;10.65;;
72464;SDS011;60471;52.150;4.508;2023-12-14T03:04:26;22.55;;;10.85;;
72464;SDS011;60471;52.150;4.508;2023-12-14T03:06:52;24.65;;;11.07;;
72464;SDS011;60471;52.150;4.508;2023-12-14T03:09:19;24.10;;;10.50;;
72464;SDS011;60471;52.150;4.508;2023-12-14T03:11:46;21.90;;;10.65;;
72464;SDS011;60471;52.150;4.508;2023-12-14T03:14:12;26.05;;;11.25;;
72464;SDS011;60471;52.150;4.508;2023-12-14T03:16:38;20.08;;;10.38;;
72464;SDS011;60471;52.150;4.508;2023-12-14T03:19:04;24.10;;;10.55;;
72464;SDS011;60471;52.150;4.508;2023-12-14T03:21:31;26.83;;;10.55;;
72464;SDS011;60471;52.150;4.508;2023-12-14T03:23:57;22.80;;;9.65;;
72464;SDS011;60471;52.150;4.508;2023-12-14T03:26:23;17.50;;;8.18;;
72464;SDS011;60471;52.150;4.508;2023-12-14T03:28:49;20.48;;;8.90;;
72464;SDS011;60471;52.150;4.508;2023-12-14T03:31:16;19.10;;;8.23;;
72464;SDS011;60471;52.150;4.508;2023-12-14T03:33:42;16.13;;;8.52;;
72464;SDS011;60471;52.150;4.508;2023-12-14T03:36:08;21.73;;;8.98;;
72464;SDS011;60471;52.150;4.508;2023-12-14T03:38:35;22.67;;;8.82;;
72464;SDS011;60471;52.150;4.508;2023-12-14T03:41:01;20.33;;;8.63;;
72464;SDS011;60471;52.150;4.508;2023-12-14T03:43:27;17.98;;;8.38;;
72464;SDS011;60471;52.150;4.508;2023-12-14T03:45:53;17.38;;;8.07;;
72464;SDS011;60471;52.150;4.508;2023-12-14T03:48:20;19.23;;;7.57;;
72464;SDS011;60471;52.150;4.508;2023-12-14T03:50:46;19.15;;;7.55;;
72464;SDS011;60471;52.150;4.508;2023-12-14T03:53:12;20.92;;;8.02;;
72464;SDS011;60471;52.150;4.508;2023-12-14T03:55:38;22.38;;;7.70;;
72464;SDS011;60471;52.150;4.508;2023-12-14T03:58:04;18.02;;;8.15;;
72464;SDS011;60471;52.150;4.508;2023-12-14T04:00:32;18.73;;;7.80;;
72464;SDS011;60471;52.150;4.508;2023-12-14T04:02:58;14.95;;;7.07;;
72464;SDS011;60471;52.150;4.508;2023-12-14T04:05:24;13.77;;;6.32;;
72464;SDS011;60471;52.150;4.508;2023-12-14T04:07:50;18.50;;;7.40;;
72464;SDS011;60471;52.150;4.508;2023-12-14T04:10:16;14.80;;;6.43;;
72464;SDS011;60471;52.150;4.508;2023-12-14T04:12:43;12.07;;;6.10;;
72464;SDS011;60471;52.150;4.508;2023-12-14T04:15:09;17.50;;;6.63;;
72464;SDS011;60471;52.150;4.508;2023-12-14T04:17:36;15.60;;;5.80;;
72464;SDS011;60471;52.150;4.508;2023-12-14T04:20:02;13.88;;;6.65;;
72464;SDS011;60471;52.150;4.508;2023-12-14T04:22:31;12.90;;;5.72;;
72464;SDS011;60471;52.150;4.508;2023-12-14T04:24:58;14.75;;;5.95;;
72464;SDS011;60471;52.150;4.508;2023-12-14T04:27:24;15.38;;;5.18;;
72464;SDS011;60471;52.150;4.508;2023-12-14T04:29:54;14.90;;;5.78;;
72464;SDS011;60471;52.150;4.508;2023-12-14T04:32:20;15.95;;;5.78;;
72464;SDS011;60471;52.150;4.508;2023-12-14T04:34:47;16.58;;;5.07;;
72464;SDS011;60471;52.150;4.508;2023-12-14T04:37:13;14.52;;;5.30;;
72464;SDS011;60471;52.150;4.508;2023-12-14T04:39:39;13.05;;;5.03;;
72464;SDS011;60471;52.150;4.508;2023-12-14T04:42:05;17.25;;;5.40;;
72464;SDS011;60471;52.150;4.508;2023-12-14T04:44:32;13.25;;;5.15;;
72464;SDS011;60471;52.150;4.508;2023-12-14T04:46:58;16.50;;;5.72;;
72464;SDS011;60471;52.150;4.508;2023-12-14T04:49:24;17.23;;;5.68;;
72464;SDS011;60471;52.150;4.508;2023-12-14T04:51:51;11.20;;;4.30;;
72464;SDS011;60471;52.150;4.508;2023-12-14T04:54:17;16.63;;;5.03;;
72464;SDS011;60471;52.150;4.508;2023-12-14T04:56:46;14.13;;;4.38;;
72464;SDS011;60471;52.150;4.508;2023-12-14T04:59:12;11.63;;;4.65;;
72464;SDS011;60471;52.150;4.508;2023-12-14T05:01:38;14.00;;;5.10;;
72464;SDS011;60471;52.150;4.508;2023-12-14T05:04:04;12.82;;;4.75;;
72464;SDS011;60471;52.150;4.508;2023-12-14T05:06:31;12.65;;;5.05;;
72464;SDS011;60471;52.150;4.508;2023-12-14T05:08:58;15.05;;;4.93;;
72464;SDS011;60471;52.150;4.508;2023-12-14T05:11:27;11.27;;;4.85;;
72464;SDS011;60471;52.150;4.508;2023-12-14T05:13:53;13.25;;;5.20;;
72464;SDS011;60471;52.150;4.508;2023-12-14T05:16:19;15.88;;;5.20;;
72464;SDS011;60471;52.150;4.508;2023-12-14T05:18:45;12.85;;;5.20;;
72464;SDS011;60471;52.150;4.508;2023-12-14T05:21:17;17.52;;;5.72;;
72464;SDS011;60471;52.150;4.508;2023-12-14T05:23:44;12.60;;;4.93;;
72464;SDS011;60471;52.150;4.508;2023-12-14T05:26:10;14.10;;;5.38;;
72464;SDS011;60471;52.150;4.508;2023-12-14T05:28:37;15.35;;;5.90;;
72464;SDS011;60471;52.150;4.508;2023-12-14T05:31:03;15.13;;;5.32;;
72464;SDS011;60471;52.150;4.508;2023-12-14T05:33:29;11.38;;;5.05;;
72464;SDS011;60471;52.150;4.508;2023-12-14T05:35:57;12.15;;;4.80;;
72464;SDS011;60471;52.150;4.508;2023-12-14T05:38:23;12.95;;;5.97;;
72464;SDS011;60471;52.150;4.508;2023-12-14T05:40:49;15.27;;;5.40;;
72464;SDS011;60471;52.150;4.508;2023-12-14T05:43:16;12.07;;;5.97;;
72464;SDS011;60471;52.150;4.508;2023-12-14T05:45:42;12.27;;;5.32;;
72464;SDS011;60471;52.150;4.508;2023-12-14T05:48:08;13.25;;;5.18;;
72464;SDS011;60471;52.150;4.508;2023-12-14T05:50:34;13.60;;;5.75;;
72464;SDS011;60471;52.150;4.508;2023-12-14T05:53:01;10.65;;;5.15;;
72464;SDS011;60471;52.150;4.508;2023-12-14T05:55:27;13.25;;;5.40;;
72464;SDS011;60471;52.150;4.508;2023-12-14T05:57:54;14.05;;;6.28;;
72464;SDS011;60471;52.150;4.508;2023-12-14T06:00:22;13.70;;;5.68;;
72464;SDS011;60471;52.150;4.508;2023-12-14T06:02:48;14.48;;;6.05;;
72464;SDS011;60471;52.150;4.508;2023-12-14T06:05:14;13.15;;;5.93;;
72464;SDS011;60471;52.150;4.508;2023-12-14T06:07:40;13.77;;;6.05;;
72464;SDS011;60471;52.150;4.508;2023-12-14T06:10:07;14.10;;;6.63;;
72464;SDS011;60471;52.150;4.508;2023-12-14T06:12:33;14.98;;;6.47;;
72464;SDS011;60471;52.150;4.508;2023-12-14T06:14:59;18.33;;;6.93;;
72464;SDS011;60471;52.150;4.508;2023-12-14T06:17:26;13.05;;;6.22;;
72464;SDS011;60471;52.150;4.508;2023-12-14T06:19:52;18.27;;;6.55;;
72464;SDS011;60471;52.150;4.508;2023-12-14T06:22:18;14.05;;;6.95;;
72464;SDS011;60471;52.150;4.508;2023-12-14T06:24:44;13.50;;;6.85;;
72464;SDS011;60471;52.150;4.508;2023-12-14T06:27:11;16.67;;;7.25;;
72464;SDS011;60471;52.150;4.508;2023-12-14T06:29:37;18.35;;;7.00;;
72464;SDS011;60471;52.150;4.508;2023-12-14T06:32:03;16.73;;;7.03;;
72464;SDS011;60471;52.150;4.508;2023-12-14T06:34:30;15.85;;;7.32;;
72464;SDS011;60471;52.150;4.508;2023-12-14T06:36:56;13.00;;;7.05;;
72464;SDS011;60471;52.150;4.508;2023-12-14T06:39:25;14.30;;;7.22;;
72464;SDS011;60471;52.150;4.508;2023-12-14T06:41:52;15.98;;;7.13;;
72464;SDS011;60471;52.150;4.508;2023-12-14T06:44:19;16.83;;;7.30;;
72464;SDS011;60471;52.150;4.508;2023-12-14T06:46:45;13.30;;;6.78;;
72464;SDS011;60471;52.150;4.508;2023-12-14T06:49:11;16.27;;;8.45;;
72464;SDS011;60471;52.150;4.508;2023-12-14T06:51:37;14.13;;;6.82;;
72464;SDS011;60471;52.150;4.508;2023-12-14T06:54:04;16.10;;;7.03;;
72464;SDS011;60471;52.150;4.508;2023-12-14T06:56:30;18.35;;;7.95;;
72464;SDS011;60471;52.150;4.508;2023-12-14T06:58:56;18.08;;;7.20;;
72464;SDS011;60471;52.150;4.508;2023-12-14T07:01:22;16.27;;;7.18;;
72464;SDS011;60471;52.150;4.508;2023-12-14T07:03:48;15.70;;;7.43;;
72464;SDS011;60471;52.150;4.508;2023-12-14T07:06:15;24.13;;;7.85;;
72464;SDS011;60471;52.150;4.508;2023-12-14T07:08:43;17.70;;;7.80;;
72464;SDS011;60471;52.150;4.508;2023-12-14T07:11:10;16.83;;;7.43;;
72464;SDS011;60471;52.150;4.508;2023-12-14T07:13:37;15.50;;;6.80;;
72464;SDS011;60471;52.150;4.508;2023-12-14T07:16:08;16.30;;;7.30;;
72464;SDS011;60471;52.150;4.508;2023-12-14T07:18:37;18.98;;;7.40;;
72464;SDS011;60471;52.150;4.508;2023-12-14T07:21:07;15.23;;;7.88;;
72464;SDS011;60471;52.150;4.508;2023-12-14T07:23:35;14.02;;;7.03;;
72464;SDS011;60471;52.150;4.508;2023-12-14T07:26:02;18.15;;;7.55;;
72464;SDS011;60471;52.150;4.508;2023-12-14T07:28:28;17.48;;;7.53;;
72464;SDS011;60471;52.150;4.508;2023-12-14T07:30:55;14.85;;;7.65;;
72464;SDS011;60471;52.150;4.508;2023-12-14T07:33:21;17.73;;;6.85;;
72464;SDS011;60471;52.150;4.508;2023-12-14T07:35:48;17.23;;;7.70;;
72464;SDS011;60471;52.150;4.508;2023-12-14T07:38:14;15.70;;;7.75;;
72464;SDS011;60471;52.150;4.508;2023-12-14T07:40:40;16.98;;;7.70;;
72464;SDS011;60471;52.150;4.508;2023-12-14T07:43:06;16.73;;;7.15;;
72464;SDS011;60471;52.150;4.508;2023-12-14T07:45:33;15.20;;;7.35;;
72464;SDS011;60471;52.150;4.508;2023-12-14T07:48:00;17.77;;;7.70;;
72464;SDS011;60471;52.150;4.508;2023-12-14T07:50:26;13.90;;;7.18;;
72464;SDS011;60471;52.150;4.508;2023-12-14T07:52:52;17.58;;;7.90;;
72464;SDS011;60471;52.150;4.508;2023-12-14T07:55:19;18.55;;;7.55;;
72464;SDS011;60471;52.150;4.508;2023-12-14T07:57:46;18.17;;;7.88;;
72464;SDS011;60471;52.150;4.508;2023-12-14T08:00:12;17.95;;;7.55;;
72464;SDS011;60471;52.150;4.508;2023-12-14T08:02:39;13.77;;;7.15;;
72464;SDS011;60471;52.150;4.508;2023-12-14T08:05:05;15.15;;;7.85;;
72464;SDS011;60471;52.150;4.508;2023-12-14T08:07:32;17.58;;;7.72;;
72464;SDS011;60471;52.150;4.508;2023-12-14T08:09:59;15.63;;;8.05;;
72464;SDS011;60471;52.150;4.508;2023-12-14T08:12:27;17.73;;;7.63;;
72464;SDS011;60471;52.150;4.508;2023-12-14T08:14:53;15.73;;;7.60;;
72464;SDS011;60471;52.150;4.508;2023-12-14T08:17:20;17.55;;;7.32;;
72464;SDS011;60471;52.150;4.508;2023-12-14T08:19:46;16.80;;;7.30;;
72464;SDS011;60471;52.150;4.508;2023-12-14T08:22:13;14.65;;;7.65;;
72464;SDS011;60471;52.150;4.508;2023-12-14T08:24:43;16.73;;;7.60;;
72464;SDS011;60471;52.150;4.508;2023-12-14T08:27:10;16.05;;;7.43;;
72464;SDS011;60471;52.150;4.508;2023-12-14T08:29:36;16.42;;;7.97;;
72464;SDS011;60471;52.150;4.508;2023-12-14T08:32:02;17.75;;;8.07;;
72464;SDS011;60471;52.150;4.508;2023-12-14T08:34:29;14.80;;;7.82;;
72464;SDS011;60471;52.150;4.508;2023-12-14T08:36:55;17.95;;;7.55;;
72464;SDS011;60471;52.150;4.508;2023-12-14T08:39:21;15.75;;;7.45;;
72464;SDS011;60471;52.150;4.508;2023-12-14T08:41:47;16.38;;;7.65;;
72464;SDS011;60471;52.150;4.508;2023-12-14T08:44:15;16.80;;;8.23;;
72464;SDS011;60471;52.150;4.508;2023-12-14T08:46:41;15.07;;;7.85;;
72464;SDS011;60471;52.150;4.508;2023-12-14T08:49:11;17.45;;;8.10;;
72464;SDS011;60471;52.150;4.508;2023-12-14T08:51:38;18.38;;;7.95;;
72464;SDS011;60471;52.150;4.508;2023-12-14T08:54:06;18.17;;;8.45;;
72464;SDS011;60471;52.150;4.508;2023-12-14T08:56:32;15.27;;;7.28;;
72464;SDS011;60471;52.150;4.508;2023-12-14T08:58:58;16.75;;;7.63;;
72464;SDS011;60471;52.150;4.508;2023-12-14T09:01:25;15.00;;;7.35;;
72464;SDS011;60471;52.150;4.508;2023-12-14T09:03:52;16.02;;;6.80;;
72464;SDS011;60471;52.150;4.508;2023-12-14T09:06:18;17.45;;;7.80;;
72464;SDS011;60471;52.150;4.508;2023-12-14T09:08:44;15.25;;;7.43;;
72464;SDS011;60471;52.150;4.508;2023-12-14T09:11:11;14.13;;;6.88;;
72464;SDS011;60471;52.150;4.508;2023-12-14T09:13:38;18.83;;;7.07;;
72464;SDS011;60471;52.150;4.508;2023-12-14T09:16:04;13.98;;;6.90;;
72464;SDS011;60471;52.150;4.508;2023-12-14T09:18:31;15.05;;;6.65;;
72464;SDS011;60471;52.150;4.508;2023-12-14T09:20:58;16.23;;;7.05;;
72464;SDS011;60471;52.150;4.508;2023-12-14T09:23:24;14.10;;;6.45;;
72464;SDS011;60471;52.150;4.508;2023-12-14T09:25:50;13.73;;;6.35;;
72464;SDS011;60471;52.150;4.508;2023-12-14T09:28:16;13.98;;;6.30;;
72464;SDS011;60471;52.150;4.508;2023-12-14T09:30:43;12.43;;;7.00;;
72464;SDS011;60471;52.150;4.508;2023-12-14T09:33:10;14.32;;;6.75;;
72464;SDS011;60471;52.150;4.508;2023-12-14T09:35:36;17.73;;;7.43;;
72464;SDS011;60471;52.150;4.508;2023-12-14T09:38:03;14.30;;;7.40;;
72464;SDS011;60471;52.150;4.508;2023-12-14T09:40:32;15.00;;;7.10;;
72464;SDS011;60471;52.150;4.508;2023-12-14T09:43:00;15.13;;;7.32;;
72464;SDS011;60471;52.150;4.508;2023-12-14T09:45:27;14.18;;;7.05;;
72464;SDS011;60471;52.150;4.508;2023-12-14T09:47:55;17.15;;;7.85;;
72464;SDS011;60471;52.150;4.508;2023-12-14T09:50:23;16.17;;;8.75;;
72464;SDS011;60471;52.150;4.508;2023-12-14T09:52:50;15.52;;;8.15;;
72464;SDS011;60471;52.150;4.508;2023-12-14T09:55:17;17.30;;;8.07;;
72464;SDS011;60471;52.150;4.508;2023-12-14T09:57:43;15.93;;;7.78;;
72464;SDS011;60471;52.150;4.508;2023-12-14T10:00:09;16.98;;;7.57;;
72464;SDS011;60471;52.150;4.508;2023-12-14T10:02:40;14.98;;;7.32;;
72464;SDS011;60471;52.150;4.508;2023-12-14T10:05:10;16.15;;;8.38;;
72464;SDS011;60471;52.150;4.508;2023-12-14T10:07:42;15.95;;;8.27;;
72464;SDS011;60471;52.150;4.508;2023-12-14T10:10:13;13.02;;;7.57;;
72464;SDS011;60471;52.150;4.508;2023-12-14T10:12:53;16.10;;;7.85;;
72464;SDS011;60471;52.150;4.508;2023-12-14T10:15:20;15.85;;;7.55;;
72464;SDS011;60471;52.150;4.508;2023-12-14T10:17:53;15.15;;;7.28;;
72464;SDS011;60471;52.150;4.508;2023-12-14T10:20:20;15.75;;;7.43;;
72464;SDS011;60471;52.150;4.508;2023-12-14T10:22:52;13.65;;;7.20;;
72464;SDS011;60471;52.150;4.508;2023-12-14T10:25:20;15.40;;;7.32;;
72464;SDS011;60471;52.150;4.508;2023-12-14T10:27:46;16.27;;;7.50;;
72464;SDS011;60471;52.150;4.508;2023-12-14T10:30:13;18.75;;;7.75;;
72464;SDS011;60471;52.150;4.508;2023-12-14T10:32:41;13.75;;;6.43;;
72464;SDS011;60471;52.150;4.508;2023-12-14T10:35:07;16.10;;;6.50;;
72464;SDS011;60471;52.150;4.508;2023-12-14T10:37:35;14.43;;;6.22;;
72464;SDS011;60471;52.150;4.508;2023-12-14T10:40:05;14.65;;;6.38;;
72464;SDS011;60471;52.150;4.508;2023-12-14T10:42:36;14.10;;;6.63;;
72464;SDS011;60471;52.150;4.508;2023-12-14T10:45:04;12.55;;;5.85;;
72464;SDS011;60471;52.150;4.508;2023-12-14T10:47:33;12.75;;;5.78;;
72464;SDS011;60471;52.150;4.508;2023-12-14T10:50:00;14.07;;;6.60;;
72464;SDS011;60471;52.150;4.508;2023-12-14T10:52:28;12.95;;;6.80;;
72464;SDS011;60471;52.150;4.508;2023-12-14T10:55:00;15.93;;;6.97;;
72464;SDS011;60471;52.150;4.508;2023-12-14T10:57:33;12.85;;;6.93;;
72464;SDS011;60471;52.150;4.508;2023-12-14T11:00:04;15.95;;;7.10;;
72464;SDS011;60471;52.150;4.508;2023-12-14T11:05:06;14.45;;;7.03;;
72464;SDS011;60471;52.150;4.508;2023-12-14T11:07:53;15.10;;;7.43;;
72464;SDS011;60471;52.150;4.508;2023-12-14T11:10:38;17.40;;;7.40;;
72464;SDS011;60471;52.150;4.508;2023-12-14T11:13:06;15.77;;;8.23;;
72464;SDS011;60471;52.150;4.508;2023-12-14T11:15:40;15.40;;;8.00;;
72464;SDS011;60471;52.150;4.508;2023-12-14T11:18:20;14.40;;;7.13;;
72464;SDS011;60471;52.150;4.508;2023-12-14T11:20:48;14.65;;;7.50;;
72464;SDS011;60471;52.150;4.508;2023-12-14T11:23:29;15.45;;;7.40;;
72464;SDS011;60471;52.150;4.508;2023-12-14T11:26:03;15.00;;;7.97;;
72464;SDS011;60471;52.150;4.508;2023-12-14T11:28:36;13.43;;;7.18;;
72464;SDS011;60471;52.150;4.508;2023-12-14T11:31:10;20.10;;;8.35;;
72464;SDS011;60471;52.150;4.508;2023-12-14T11:33:38;15.63;;;8.07;;
72464;SDS011;60471;52.150;4.508;2023-12-14T11:36:04;17.73;;;7.97;;
72464;SDS011;60471;52.150;4.508;2023-12-14T11:38:32;15.95;;;7.70;;
72464;SDS011;60471;52.150;4.508;2023-12-14T11:41:01;15.40;;;8.10;;
72464;SDS011;60471;52.150;4.508;2023-12-14T11:43:27;17.02;;;8.48;;
72464;SDS011;60471;52.150;4.508;2023-12-14T11:45:54;17.20;;;7.35;;
72464;SDS011;60471;52.150;4.508;2023-12-14T11:48:24;14.80;;;8.57;;
72464;SDS011;60471;52.150;4.508;2023-12-14T11:50:51;15.55;;;7.78;;
72464;SDS011;60471;52.150;4.508;2023-12-14T11:53:17;17.58;;;7.30;;
72464;SDS011;60471;52.150;4.508;2023-12-14T11:55:44;17.85;;;8.10;;
72464;SDS011;60471;52.150;4.508;2023-12-14T11:58:11;16.00;;;7.60;;
72464;SDS011;60471;52.150;4.508;2023-12-14T12:00:41;16.15;;;7.78;;
72464;SDS011;60471;52.150;4.508;2023-12-14T12:03:08;16.90;;;8.30;;
72464;SDS011;60471;52.150;4.508;2023-12-14T12:05:43;17.05;;;8.43;;
72464;SDS011;60471;52.150;4.508;2023-12-14T12:08:12;16.33;;;8.57;;
72464;SDS011;60471;52.150;4.508;2023-12-14T12:10:41;16.77;;;8.65;;
72464;SDS011;60471;52.150;4.508;2023-12-14T12:13:13;18.15;;;8.13;;
72464;SDS011;60471;52.150;4.508;2023-12-14T12:15:45;16.48;;;8.25;;
72464;SDS011;60471;52.150;4.508;2023-12-14T12:18:13;17.17;;;8.40;;
72464;SDS011;60471;52.150;4.508;2023-12-14T12:20:42;18.50;;;9.07;;
72464;SDS011;60471;52.150;4.508;2023-12-14T12:23:08;17.20;;;8.70;;
72464;SDS011;60471;52.150;4.508;2023-12-14T12:25:35;18.02;;;9.30;;
72464;SDS011;60471;52.150;4.508;2023-12-14T12:28:02;17.55;;;9.02;;
72464;SDS011;60471;52.150;4.508;2023-12-14T12:30:32;18.23;;;9.50;;
72464;SDS011;60471;52.150;4.508;2023-12-14T12:32:58;20.90;;;11.00;;
72464;SDS011;60471;52.150;4.508;2023-12-14T12:35:24;19.83;;;10.85;;
72464;SDS011;60471;52.150;4.508;2023-12-14T12:37:51;22.73;;;11.13;;
72464;SDS011;60471;52.150;4.508;2023-12-14T12:40:21;23.58;;;11.32;;
72464;SDS011;60471;52.150;4.508;2023-12-14T12:42:48;18.13;;;10.98;;
72464;SDS011;60471;52.150;4.508;2023-12-14T12:45:15;24.92;;;11.32;;
72464;SDS011;60471;52.150;4.508;2023-12-14T12:47:48;17.73;;;10.10;;
72464;SDS011;60471;52.150;4.508;2023-12-14T12:50:14;19.20;;;10.88;;
72464;SDS011;60471;52.150;4.508;2023-12-14T12:52:40;21.48;;;10.70;;
72464;SDS011;60471;52.150;4.508;2023-12-14T12:55:08;19.67;;;10.75;;
72464;SDS011;60471;52.150;4.508;2023-12-14T12:57:38;18.70;;;10.57;;
72464;SDS011;60471;52.150;4.508;2023-12-14T13:00:04;17.20;;;9.85;;
72464;SDS011;60471;52.150;4.508;2023-12-14T13:02:33;19.42;;;10.45;;
72464;SDS011;60471;52.150;4.508;2023-12-14T13:05:00;18.92;;;9.93;;
72464;SDS011;60471;52.150;4.508;2023-12-14T13:07:26;23.42;;;10.70;;
72464;SDS011;60471;52.150;4.508;2023-12-14T13:09:52;20.58;;;10.77;;
72464;SDS011;60471;52.150;4.508;2023-12-14T13:12:18;20.20;;;10.23;;
72464;SDS011;60471;52.150;4.508;2023-12-14T13:14:44;23.08;;;11.00;;
72464;SDS011;60471;52.150;4.508;2023-12-14T13:17:11;21.85;;;10.93;;
72464;SDS011;60471;52.150;4.508;2023-12-14T13:19:37;17.10;;;10.18;;
72464;SDS011;60471;52.150;4.508;2023-12-14T13:22:03;21.45;;;11.00;;
72464;SDS011;60471;52.150;4.508;2023-12-14T13:24:30;16.40;;;9.43;;
72464;SDS011;60471;52.150;4.508;2023-12-14T13:26:56;20.40;;;10.27;;
72464;SDS011;60471;52.150;4.508;2023-12-14T13:29:22;19.67;;;10.95;;
72464;SDS011;60471;52.150;4.508;2023-12-14T13:31:49;20.13;;;10.88;;
72464;SDS011;60471;52.150;4.508;2023-12-14T13:34:15;21.17;;;10.57;;
72464;SDS011;60471;52.150;4.508;2023-12-14T13:36:41;19.88;;;10.30;;
72464;SDS011;60471;52.150;4.508;2023-12-14T13:39:07;25.17;;;9.75;;
72464;SDS011;60471;52.150;4.508;2023-12-14T13:41:34;22.25;;;10.38;;
72464;SDS011;60471;52.150;4.508;2023-12-14T13:44:00;20.73;;;10.20;;
72464;SDS011;60471;52.150;4.508;2023-12-14T13:46:27;18.67;;;10.40;;
72464;SDS011;60471;52.150;4.508;2023-12-14T13:48:53;20.55;;;10.82;;
72464;SDS011;60471;52.150;4.508;2023-12-14T13:51:20;24.25;;;10.50;;
72464;SDS011;60471;52.150;4.508;2023-12-14T13:53:46;18.67;;;10.80;;
72464;SDS011;60471;52.150;4.508;2023-12-14T13:56:12;24.05;;;10.50;;
72464;SDS011;60471;52.150;4.508;2023-12-14T13:58:39;17.23;;;10.27;;
72464;SDS011;60471;52.150;4.508;2023-12-14T14:01:05;22.23;;;10.45;;
72464;SDS011;60471;52.150;4.508;2023-12-14T14:03:34;21.77;;;10.63;;
72464;SDS011;60471;52.150;4.508;2023-12-14T14:06:01;19.15;;;10.25;;
72464;SDS011;60471;52.150;4.508;2023-12-14T14:08:28;21.45;;;11.05;;
72464;SDS011;60471;52.150;4.508;2023-12-14T14:10:54;21.00;;;10.43;;
72464;SDS011;60471;52.150;4.508;2023-12-14T14:13:20;18.17;;;10.48;;
72464;SDS011;60471;52.150;4.508;2023-12-14T14:15:47;23.20;;;11.43;;
72464;SDS011;60471;52.150;4.508;2023-12-14T14:18:13;22.17;;;11.80;;
72464;SDS011;60471;52.150;4.508;2023-12-14T14:20:39;18.73;;;10.23;;
72464;SDS011;60471;52.150;4.508;2023-12-14T14:23:06;18.02;;;10.85;;
72464;SDS011;60471;52.150;4.508;2023-12-14T14:25:32;23.13;;;11.45;;
72464;SDS011;60471;52.150;4.508;2023-12-14T14:27:59;18.05;;;10.68;;
72464;SDS011;60471;52.150;4.508;2023-12-14T14:30:25;19.42;;;10.18;;
72464;SDS011;60471;52.150;4.508;2023-12-14T14:32:51;19.35;;;11.15;;